sensor_id;sensor_type;location;lat;lon;timestamp;temperature;humidity
9527;DHT22;4802;51.494;6.770;2022-08-30T00:01:25;19.90;1.00
9527;DHT22;4802;51.494;6.770;2022-08-30T00:03:53;19.90;1.00
9527;DHT22;4802;51.494;6.770;2022-08-30T00:06:30;19.90;1.00
9527;DHT22;4802;51.494;6.770;2022-08-30T00:08:59;19.90;1.00
9527;DHT22;4802;51.494;6.770;2022-08-30T00:11:28;19.80;1.00
9527;DHT22;4802;51.494;6.770;2022-08-30T00:13:57;19.90;1.00
9527;DHT22;4802;51.494;6.770;2022-08-30T00:16:26;19.80;1.00
9527;DHT22;4802;51.494;6.770;2022-08-30T00:19:02;19.90;1.00
9527;DHT22;4802;51.494;6.770;2022-08-30T00:21:35;19.90;1.00
9527;DHT22;4802;51.494;6.770;2022-08-30T00:24:07;20.00;1.00
9527;DHT22;4802;51.494;6.770;2022-08-30T00:26:36;20.00;1.00
9527;DHT22;4802;51.494;6.770;2022-08-30T00:29:05;20.00;1.00
9527;DHT22;4802;51.494;6.770;2022-08-30T00:31:34;20.00;1.00
9527;DHT22;4802;51.494;6.770;2022-08-30T00:34:03;20.20;1.00
9527;DHT22;4802;51.494;6.770;2022-08-30T00:36:35;20.00;1.00
9527;DHT22;4802;51.494;6.770;2022-08-30T00:39:04;19.90;1.00
9527;DHT22;4802;51.494;6.770;2022-08-30T00:41:33;19.80;1.00
9527;DHT22;4802;51.494;6.770;2022-08-30T00:44:03;19.80;1.00
9527;DHT22;4802;51.494;6.770;2022-08-30T00:46:34;19.80;1.00
9527;DHT22;4802;51.494;6.770;2022-08-30T00:49:06;19.80;1.00
9527;DHT22;4802;51.494;6.770;2022-08-30T00:51:39;19.80;1.00
9527;DHT22;4802;51.494;6.770;2022-08-30T00:54:08;19.80;1.00
9527;DHT22;4802;51.494;6.770;2022-08-30T00:56:38;19.80;1.00
9527;DHT22;4802;51.494;6.770;2022-08-30T00:59:07;19.70;1.00
9527;DHT22;4802;51.494;6.770;2022-08-30T01:01:37;19.70;1.00
9527;DHT22;4802;51.494;6.770;2022-08-30T01:04:07;19.70;1.00
9527;DHT22;4802;51.494;6.770;2022-08-30T01:06:38;19.70;1.00
9527;DHT22;4802;51.494;6.770;2022-08-30T01:09:08;19.70;1.00
9527;DHT22;4802;51.494;6.770;2022-08-30T01:11:40;19.70;1.00
9527;DHT22;4802;51.494;6.770;2022-08-30T01:14:10;19.60;1.00
9527;DHT22;4802;51.494;6.770;2022-08-30T01:16:41;19.50;1.00
9527;DHT22;4802;51.494;6.770;2022-08-30T01:19:30;19.50;1.00
9527;DHT22;4802;51.494;6.770;2022-08-30T01:22:04;19.50;1.00
9527;DHT22;4802;51.494;6.770;2022-08-30T01:24:36;19.60;1.00
9527;DHT22;4802;51.494;6.770;2022-08-30T01:27:06;19.50;1.00
9527;DHT22;4802;51.494;6.770;2022-08-30T01:29:35;19.50;1.00
9527;DHT22;4802;51.494;6.770;2022-08-30T01:32:05;19.60;1.00
9527;DHT22;4802;51.494;6.770;2022-08-30T01:34:34;19.50;1.00
9527;DHT22;4802;51.494;6.770;2022-08-30T01:37:03;19.50;1.00
9527;DHT22;4802;51.494;6.770;2022-08-30T01:39:32;19.60;1.00
9527;DHT22;4802;51.494;6.770;2022-08-30T01:42:03;19.60;1.00
9527;DHT22;4802;51.494;6.770;2022-08-30T01:44:35;19.70;1.00
9527;DHT22;4802;51.494;6.770;2022-08-30T01:47:07;19.60;1.00
9527;DHT22;4802;51.494;6.770;2022-08-30T01:49:41;19.40;1.00
9527;DHT22;4802;51.494;6.770;2022-08-30T01:52:11;19.50;1.00
9527;DHT22;4802;51.494;6.770;2022-08-30T01:54:42;19.50;1.00
9527;DHT22;4802;51.494;6.770;2022-08-30T01:57:15;19.50;1.00
9527;DHT22;4802;51.494;6.770;2022-08-30T01:59:48;19.50;1.00
9527;DHT22;4802;51.494;6.770;2022-08-30T02:02:19;19.40;1.00
9527;DHT22;4802;51.494;6.770;2022-08-30T02:04:49;19.50;1.00
9527;DHT22;4802;51.494;6.770;2022-08-30T02:07:19;19.50;1.00
9527;DHT22;4802;51.494;6.770;2022-08-30T02:09:57;19.40;1.00
9527;DHT22;4802;51.494;6.770;2022-08-30T02:12:27;19.50;1.00
9527;DHT22;4802;51.494;6.770;2022-08-30T02:14:56;19.40;1.00
9527;DHT22;4802;51.494;6.770;2022-08-30T02:17:28;19.40;1.00
9527;DHT22;4802;51.494;6.770;2022-08-30T02:19:57;19.40;1.00
9527;DHT22;4802;51.494;6.770;2022-08-30T02:22:32;19.30;1.00
9527;DHT22;4802;51.494;6.770;2022-08-30T02:25:01;19.30;1.00
9527;DHT22;4802;51.494;6.770;2022-08-30T02:27:33;19.40;1.00
9527;DHT22;4802;51.494;6.770;2022-08-30T02:30:04;19.30;1.00
9527;DHT22;4802;51.494;6.770;2022-08-30T02:32:33;19.20;1.00
9527;DHT22;4802;51.494;6.770;2022-08-30T02:35:04;19.20;1.00
9527;DHT22;4802;51.494;6.770;2022-08-30T02:37:33;19.20;1.00
9527;DHT22;4802;51.494;6.770;2022-08-30T02:40:03;19.10;1.00
9527;DHT22;4802;51.494;6.770;2022-08-30T02:42:34;19.20;1.00
9527;DHT22;4802;51.494;6.770;2022-08-30T02:45:03;19.10;1.00
9527;DHT22;4802;51.494;6.770;2022-08-30T02:47:32;19.10;1.00
9527;DHT22;4802;51.494;6.770;2022-08-30T02:50:02;19.10;1.00
9527;DHT22;4802;51.494;6.770;2022-08-30T02:52:31;19.10;1.00
9527;DHT22;4802;51.494;6.770;2022-08-30T02:55:00;19.10;1.00
9527;DHT22;4802;51.494;6.770;2022-08-30T02:57:30;19.00;1.00
9527;DHT22;4802;51.494;6.770;2022-08-30T03:00:00;19.00;1.00
9527;DHT22;4802;51.494;6.770;2022-08-30T03:02:29;19.10;1.00
9527;DHT22;4802;51.494;6.770;2022-08-30T03:04:58;19.20;1.00
9527;DHT22;4802;51.494;6.770;2022-08-30T03:07:27;19.20;1.00
9527;DHT22;4802;51.494;6.770;2022-08-30T03:09:57;19.10;1.00
9527;DHT22;4802;51.494;6.770;2022-08-30T03:12:26;19.10;1.00
9527;DHT22;4802;51.494;6.770;2022-08-30T03:14:57;19.10;1.00
9527;DHT22;4802;51.494;6.770;2022-08-30T03:17:28;19.10;1.00
9527;DHT22;4802;51.494;6.770;2022-08-30T03:19:57;18.90;1.00
9527;DHT22;4802;51.494;6.770;2022-08-30T03:22:28;19.10;1.00
9527;DHT22;4802;51.494;6.770;2022-08-30T03:24:57;19.10;1.00
9527;DHT22;4802;51.494;6.770;2022-08-30T03:27:28;19.00;1.00
9527;DHT22;4802;51.494;6.770;2022-08-30T03:29:57;19.10;1.00
9527;DHT22;4802;51.494;6.770;2022-08-30T03:32:28;18.90;1.00
9527;DHT22;4802;51.494;6.770;2022-08-30T03:34:57;18.90;1.00
9527;DHT22;4802;51.494;6.770;2022-08-30T03:37:27;18.90;1.00
9527;DHT22;4802;51.494;6.770;2022-08-30T03:39:55;18.90;1.00
9527;DHT22;4802;51.494;6.770;2022-08-30T03:42:25;18.90;1.00
9527;DHT22;4802;51.494;6.770;2022-08-30T03:44:54;18.70;1.00
9527;DHT22;4802;51.494;6.770;2022-08-30T03:47:23;18.70;1.00
9527;DHT22;4802;51.494;6.770;2022-08-30T03:49:55;18.50;1.00
9527;DHT22;4802;51.494;6.770;2022-08-30T03:52:24;18.50;1.00
9527;DHT22;4802;51.494;6.770;2022-08-30T03:54:53;18.50;1.00
9527;DHT22;4802;51.494;6.770;2022-08-30T03:57:23;18.50;1.00
9527;DHT22;4802;51.494;6.770;2022-08-30T03:59:54;18.50;1.00
9527;DHT22;4802;51.494;6.770;2022-08-30T04:02:23;18.60;1.00
9527;DHT22;4802;51.494;6.770;2022-08-30T04:04:55;18.60;1.00
9527;DHT22;4802;51.494;6.770;2022-08-30T04:07:25;18.70;1.00
9527;DHT22;4802;51.494;6.770;2022-08-30T04:09:54;18.80;1.00
9527;DHT22;4802;51.494;6.770;2022-08-30T04:12:23;18.70;1.00
9527;DHT22;4802;51.494;6.770;2022-08-30T04:14:52;18.70;1.00
9527;DHT22;4802;51.494;6.770;2022-08-30T04:17:22;18.70;1.00
9527;DHT22;4802;51.494;6.770;2022-08-30T04:19:51;18.60;1.00
9527;DHT22;4802;51.494;6.770;2022-08-30T04:22:22;18.50;1.00
9527;DHT22;4802;51.494;6.770;2022-08-30T04:24:51;18.40;1.00
9527;DHT22;4802;51.494;6.770;2022-08-30T04:27:20;18.40;1.00
9527;DHT22;4802;51.494;6.770;2022-08-30T04:29:49;18.00;1.00
9527;DHT22;4802;51.494;6.770;2022-08-30T04:32:22;17.80;1.00
9527;DHT22;4802;51.494;6.770;2022-08-30T04:34:55;17.70;1.00
9527;DHT22;4802;51.494;6.770;2022-08-30T04:37:27;17.50;1.00
9527;DHT22;4802;51.494;6.770;2022-08-30T04:39:57;17.50;1.00
9527;DHT22;4802;51.494;6.770;2022-08-30T04:42:29;17.40;1.00
9527;DHT22;4802;51.494;6.770;2022-08-30T04:45:00;17.40;1.00
9527;DHT22;4802;51.494;6.770;2022-08-30T04:47:31;17.50;1.00
9527;DHT22;4802;51.494;6.770;2022-08-30T04:50:02;17.40;1.00
9527;DHT22;4802;51.494;6.770;2022-08-30T04:52:33;17.40;1.00
9527;DHT22;4802;51.494;6.770;2022-08-30T04:55:03;17.40;1.00
9527;DHT22;4802;51.494;6.770;2022-08-30T04:57:33;17.30;1.00
9527;DHT22;4802;51.494;6.770;2022-08-30T05:00:05;17.40;1.00
9527;DHT22;4802;51.494;6.770;2022-08-30T05:02:34;17.40;1.00
9527;DHT22;4802;51.494;6.770;2022-08-30T05:05:05;17.40;1.00
9527;DHT22;4802;51.494;6.770;2022-08-30T05:07:52;17.40;1.00
9527;DHT22;4802;51.494;6.770;2022-08-30T05:10:22;17.40;1.00
9527;DHT22;4802;51.494;6.770;2022-08-30T05:12:51;17.50;1.00
9527;DHT22;4802;51.494;6.770;2022-08-30T05:15:20;17.50;1.00
9527;DHT22;4802;51.494;6.770;2022-08-30T05:17:50;17.40;1.00
9527;DHT22;4802;51.494;6.770;2022-08-30T05:20:19;17.40;1.00
9527;DHT22;4802;51.494;6.770;2022-08-30T05:22:48;17.50;1.00
9527;DHT22;4802;51.494;6.770;2022-08-30T05:25:23;17.60;1.00
9527;DHT22;4802;51.494;6.770;2022-08-30T05:27:53;17.50;1.00
9527;DHT22;4802;51.494;6.770;2022-08-30T05:30:24;17.60;1.00
9527;DHT22;4802;51.494;6.770;2022-08-30T05:32:54;17.50;1.00
9527;DHT22;4802;51.494;6.770;2022-08-30T05:35:23;18.30;1.00
9527;DHT22;4802;51.494;6.770;2022-08-30T05:37:52;18.60;1.00
9527;DHT22;4802;51.494;6.770;2022-08-30T05:40:23;18.70;1.00
9527;DHT22;4802;51.494;6.770;2022-08-30T05:42:55;19.20;1.00
9527;DHT22;4802;51.494;6.770;2022-08-30T05:45:24;19.40;1.00
9527;DHT22;4802;51.494;6.770;2022-08-30T05:47:53;19.50;1.00
9527;DHT22;4802;51.494;6.770;2022-08-30T05:50:21;19.90;1.00
9527;DHT22;4802;51.494;6.770;2022-08-30T05:52:51;19.90;1.00
9527;DHT22;4802;51.494;6.770;2022-08-30T05:55:20;19.90;1.00
9527;DHT22;4802;51.494;6.770;2022-08-30T05:57:51;20.00;1.00
9527;DHT22;4802;51.494;6.770;2022-08-30T06:00:21;20.50;1.00
9527;DHT22;4802;51.494;6.770;2022-08-30T06:02:52;21.20;1.00
9527;DHT22;4802;51.494;6.770;2022-08-30T06:05:22;22.40;1.00
9527;DHT22;4802;51.494;6.770;2022-08-30T06:07:52;23.10;1.00
9527;DHT22;4802;51.494;6.770;2022-08-30T06:10:21;23.30;1.00
9527;DHT22;4802;51.494;6.770;2022-08-30T06:12:51;23.00;1.00
9527;DHT22;4802;51.494;6.770;2022-08-30T06:15:20;22.60;1.00
9527;DHT22;4802;51.494;6.770;2022-08-30T06:17:52;22.10;1.00
9527;DHT22;4802;51.494;6.770;2022-08-30T06:20:21;21.50;1.00
9527;DHT22;4802;51.494;6.770;2022-08-30T06:22:51;21.40;1.00
9527;DHT22;4802;51.494;6.770;2022-08-30T06:25:20;21.40;1.00
9527;DHT22;4802;51.494;6.770;2022-08-30T06:27:51;21.20;1.00
9527;DHT22;4802;51.494;6.770;2022-08-30T06:30:22;21.30;1.00
9527;DHT22;4802;51.494;6.770;2022-08-30T06:32:51;22.00;1.00
9527;DHT22;4802;51.494;6.770;2022-08-30T06:35:22;23.10;1.00
9527;DHT22;4802;51.494;6.770;2022-08-30T06:37:52;23.30;1.00
9527;DHT22;4802;51.494;6.770;2022-08-30T06:40:21;24.00;1.00
9527;DHT22;4802;51.494;6.770;2022-08-30T06:42:52;24.60;99.90
9527;DHT22;4802;51.494;6.770;2022-08-30T06:45:21;25.60;99.90
9527;DHT22;4802;51.494;6.770;2022-08-30T06:47:50;26.10;99.90
9527;DHT22;4802;51.494;6.770;2022-08-30T06:50:19;26.50;99.90
9527;DHT22;4802;51.494;6.770;2022-08-30T06:52:51;27.30;99.90
9527;DHT22;4802;51.494;6.770;2022-08-30T06:55:23;27.80;99.90
9527;DHT22;4802;51.494;6.770;2022-08-30T06:57:53;27.90;99.90
9527;DHT22;4802;51.494;6.770;2022-08-30T07:00:22;28.10;99.90
9527;DHT22;4802;51.494;6.770;2022-08-30T07:02:51;28.20;99.90
9527;DHT22;4802;51.494;6.770;2022-08-30T07:05:20;28.50;99.90
9527;DHT22;4802;51.494;6.770;2022-08-30T07:07:50;28.00;99.90
9527;DHT22;4802;51.494;6.770;2022-08-30T07:10:20;28.20;99.90
9527;DHT22;4802;51.494;6.770;2022-08-30T07:12:49;28.40;99.90
9527;DHT22;4802;51.494;6.770;2022-08-30T07:15:20;28.10;99.90
9527;DHT22;4802;51.494;6.770;2022-08-30T07:17:50;28.10;99.90
9527;DHT22;4802;51.494;6.770;2022-08-30T07:20:37;28.10;99.90
9527;DHT22;4802;51.494;6.770;2022-08-30T07:23:07;27.60;99.90
9527;DHT22;4802;51.494;6.770;2022-08-30T07:25:37;28.00;99.90
9527;DHT22;4802;51.494;6.770;2022-08-30T07:28:07;28.50;99.90
9527;DHT22;4802;51.494;6.770;2022-08-30T07:30:39;29.00;99.90
9527;DHT22;4802;51.494;6.770;2022-08-30T07:33:09;29.00;99.90
9527;DHT22;4802;51.494;6.770;2022-08-30T07:35:38;28.70;99.90
9527;DHT22;4802;51.494;6.770;2022-08-30T07:38:11;28.40;99.90
9527;DHT22;4802;51.494;6.770;2022-08-30T07:40:40;27.80;99.90
9527;DHT22;4802;51.494;6.770;2022-08-30T07:43:09;28.00;99.90
9527;DHT22;4802;51.494;6.770;2022-08-30T07:45:40;28.00;99.90
9527;DHT22;4802;51.494;6.770;2022-08-30T07:48:09;28.50;99.90
9527;DHT22;4802;51.494;6.770;2022-08-30T07:50:43;29.10;99.90
9527;DHT22;4802;51.494;6.770;2022-08-30T07:53:13;28.80;99.90
9527;DHT22;4802;51.494;6.770;2022-08-30T07:55:42;27.90;99.90
9527;DHT22;4802;51.494;6.770;2022-08-30T07:58:11;28.00;99.90
9527;DHT22;4802;51.494;6.770;2022-08-30T08:00:42;28.00;99.90
9527;DHT22;4802;51.494;6.770;2022-08-30T08:03:12;28.20;99.90
9527;DHT22;4802;51.494;6.770;2022-08-30T08:05:43;27.80;99.90
9527;DHT22;4802;51.494;6.770;2022-08-30T08:08:13;27.80;99.90
9527;DHT22;4802;51.494;6.770;2022-08-30T08:10:42;27.80;99.90
9527;DHT22;4802;51.494;6.770;2022-08-30T08:13:12;28.60;99.90
9527;DHT22;4802;51.494;6.770;2022-08-30T08:15:42;28.80;99.90
9527;DHT22;4802;51.494;6.770;2022-08-30T08:18:12;27.90;99.90
9527;DHT22;4802;51.494;6.770;2022-08-30T08:20:41;26.90;99.90
9527;DHT22;4802;51.494;6.770;2022-08-30T08:23:10;26.60;99.90
9527;DHT22;4802;51.494;6.770;2022-08-30T08:25:40;27.00;99.90
9527;DHT22;4802;51.494;6.770;2022-08-30T08:28:09;27.60;99.90
9527;DHT22;4802;51.494;6.770;2022-08-30T08:30:39;28.20;99.90
9527;DHT22;4802;51.494;6.770;2022-08-30T08:33:16;28.60;99.90
9527;DHT22;4802;51.494;6.770;2022-08-30T08:35:46;29.00;99.90
9527;DHT22;4802;51.494;6.770;2022-08-30T08:38:16;29.00;99.90
9527;DHT22;4802;51.494;6.770;2022-08-30T08:40:54;29.50;99.90
9527;DHT22;4802;51.494;6.770;2022-08-30T08:43:33;29.20;99.90
9527;DHT22;4802;51.494;6.770;2022-08-30T08:46:11;29.10;99.90
9527;DHT22;4802;51.494;6.770;2022-08-30T08:48:47;28.70;99.90
9527;DHT22;4802;51.494;6.770;2022-08-30T08:51:30;28.60;99.90
9527;DHT22;4802;51.494;6.770;2022-08-30T08:54:22;28.40;99.90
9527;DHT22;4802;51.494;6.770;2022-08-30T08:56:54;27.80;99.90
9527;DHT22;4802;51.494;6.770;2022-08-30T08:59:23;27.40;99.90
9527;DHT22;4802;51.494;6.770;2022-08-30T09:01:54;27.40;99.90
9527;DHT22;4802;51.494;6.770;2022-08-30T09:04:33;27.70;99.90
9527;DHT22;4802;51.494;6.770;2022-08-30T09:07:07;28.00;99.90
9527;DHT22;4802;51.494;6.770;2022-08-30T09:09:40;28.70;99.90
9527;DHT22;4802;51.494;6.770;2022-08-30T09:12:10;29.20;99.90
9527;DHT22;4802;51.494;6.770;2022-08-30T09:14:42;29.70;99.90
9527;DHT22;4802;51.494;6.770;2022-08-30T09:17:15;29.80;99.90
9527;DHT22;4802;51.494;6.770;2022-08-30T09:19:57;29.60;99.90
9527;DHT22;4802;51.494;6.770;2022-08-30T09:22:31;28.80;99.90
9527;DHT22;4802;51.494;6.770;2022-08-30T09:25:04;28.10;99.90
9527;DHT22;4802;51.494;6.770;2022-08-30T09:27:35;27.90;99.90
9527;DHT22;4802;51.494;6.770;2022-08-30T09:30:08;28.40;99.90
9527;DHT22;4802;51.494;6.770;2022-08-30T09:32:42;28.70;99.90
9527;DHT22;4802;51.494;6.770;2022-08-30T09:35:18;29.00;99.90
9527;DHT22;4802;51.494;6.770;2022-08-30T09:37:52;28.50;99.90
9527;DHT22;4802;51.494;6.770;2022-08-30T09:40:27;28.30;99.90
9527;DHT22;4802;51.494;6.770;2022-08-30T09:43:03;28.20;99.90
9527;DHT22;4802;51.494;6.770;2022-08-30T09:45:34;28.60;99.90
9527;DHT22;4802;51.494;6.770;2022-08-30T09:48:31;29.00;99.90
9527;DHT22;4802;51.494;6.770;2022-08-30T09:54:08;27.50;99.90
9527;DHT22;4802;51.494;6.770;2022-08-30T09:56:51;27.60;99.90
9527;DHT22;4802;51.494;6.770;2022-08-30T09:59:36;27.10;99.90
9527;DHT22;4802;51.494;6.770;2022-08-30T10:02:28;26.70;99.90
9527;DHT22;4802;51.494;6.770;2022-08-30T10:05:05;26.00;99.90
9527;DHT22;4802;51.494;6.770;2022-08-30T10:07:44;26.50;99.90
9527;DHT22;4802;51.494;6.770;2022-08-30T10:10:18;26.90;99.90
9527;DHT22;4802;51.494;6.770;2022-08-30T10:12:58;27.00;99.90
9527;DHT22;4802;51.494;6.770;2022-08-30T10:15:32;27.30;99.90
9527;DHT22;4802;51.494;6.770;2022-08-30T10:18:09;26.70;99.90
9527;DHT22;4802;51.494;6.770;2022-08-30T10:20:47;26.70;99.90
9527;DHT22;4802;51.494;6.770;2022-08-30T10:23:25;26.80;99.90
9527;DHT22;4802;51.494;6.770;2022-08-30T10:26:04;26.80;99.90
9527;DHT22;4802;51.494;6.770;2022-08-30T10:28:38;27.10;99.90
9527;DHT22;4802;51.494;6.770;2022-08-30T10:31:35;27.40;99.90
9527;DHT22;4802;51.494;6.770;2022-08-30T10:34:13;28.10;99.90
9527;DHT22;4802;51.494;6.770;2022-08-30T10:36:47;28.10;99.90
9527;DHT22;4802;51.494;6.770;2022-08-30T10:39:22;28.30;99.90
9527;DHT22;4802;51.494;6.770;2022-08-30T10:42:02;28.30;99.90
9527;DHT22;4802;51.494;6.770;2022-08-30T10:44:42;27.60;99.90
9527;DHT22;4802;51.494;6.770;2022-08-30T10:47:21;27.30;99.90
9527;DHT22;4802;51.494;6.770;2022-08-30T10:49:56;27.70;99.90
9527;DHT22;4802;51.494;6.770;2022-08-30T10:52:33;27.20;99.90
9527;DHT22;4802;51.494;6.770;2022-08-30T10:55:10;27.40;99.90
9527;DHT22;4802;51.494;6.770;2022-08-30T10:57:43;27.00;99.90
9527;DHT22;4802;51.494;6.770;2022-08-30T11:00:21;26.20;99.90
9527;DHT22;4802;51.494;6.770;2022-08-30T11:03:16;26.30;99.90
9527;DHT22;4802;51.494;6.770;2022-08-30T11:06:08;26.80;99.90
9527;DHT22;4802;51.494;6.770;2022-08-30T11:09:05;26.80;99.90
9527;DHT22;4802;51.494;6.770;2022-08-30T11:11:54;27.40;99.90
9527;DHT22;4802;51.494;6.770;2022-08-30T11:14:24;27.50;99.90
9527;DHT22;4802;51.494;6.770;2022-08-30T11:16:55;27.70;99.90
9527;DHT22;4802;51.494;6.770;2022-08-30T11:19:33;27.50;99.90
9527;DHT22;4802;51.494;6.770;2022-08-30T11:22:11;27.30;99.90
9527;DHT22;4802;51.494;6.770;2022-08-30T11:25:03;27.30;99.90
9527;DHT22;4802;51.494;6.770;2022-08-30T11:27:47;27.20;99.90
9527;DHT22;4802;51.494;6.770;2022-08-30T11:30:48;27.50;99.90
9527;DHT22;4802;51.494;6.770;2022-08-30T11:33:42;27.80;99.90
9527;DHT22;4802;51.494;6.770;2022-08-30T11:42:49;26.40;99.90
9527;DHT22;4802;51.494;6.770;2022-08-30T11:45:41;27.00;99.90
9527;DHT22;4802;51.494;6.770;2022-08-30T11:48:45;27.50;99.90
9527;DHT22;4802;51.494;6.770;2022-08-30T11:51:48;27.40;99.90
9527;DHT22;4802;51.494;6.770;2022-08-30T11:54:49;27.50;99.90
9527;DHT22;4802;51.494;6.770;2022-08-30T11:57:30;27.60;99.90
9527;DHT22;4802;51.494;6.770;2022-08-30T12:00:06;27.40;99.90
9527;DHT22;4802;51.494;6.770;2022-08-30T12:02:46;27.20;99.90
9527;DHT22;4802;51.494;6.770;2022-08-30T12:05:54;27.20;99.90
9527;DHT22;4802;51.494;6.770;2022-08-30T12:08:56;27.60;99.90
9527;DHT22;4802;51.494;6.770;2022-08-30T12:12:02;27.50;99.90
9527;DHT22;4802;51.494;6.770;2022-08-30T12:14:47;27.50;99.90
9527;DHT22;4802;51.494;6.770;2022-08-30T12:17:26;27.50;99.90
9527;DHT22;4802;51.494;6.770;2022-08-30T12:20:23;27.60;99.90
9527;DHT22;4802;51.494;6.770;2022-08-30T12:22:59;28.00;99.90
9527;DHT22;4802;51.494;6.770;2022-08-30T12:25:44;27.40;99.90
9527;DHT22;4802;51.494;6.770;2022-08-30T12:28:19;27.50;99.90
9527;DHT22;4802;51.494;6.770;2022-08-30T12:30:50;27.30;99.90
9527;DHT22;4802;51.494;6.770;2022-08-30T12:33:30;27.50;99.90
9527;DHT22;4802;51.494;6.770;2022-08-30T12:36:11;27.70;99.90
9527;DHT22;4802;51.494;6.770;2022-08-30T12:38:43;27.90;99.90
9527;DHT22;4802;51.494;6.770;2022-08-30T12:41:18;28.10;99.90
9527;DHT22;4802;51.494;6.770;2022-08-30T12:43:56;28.10;99.90
9527;DHT22;4802;51.494;6.770;2022-08-30T12:46:27;27.90;99.90
9527;DHT22;4802;51.494;6.770;2022-08-30T12:48:58;27.50;99.90
9527;DHT22;4802;51.494;6.770;2022-08-30T12:51:41;27.80;99.90
9527;DHT22;4802;51.494;6.770;2022-08-30T12:54:18;27.70;99.90
9527;DHT22;4802;51.494;6.770;2022-08-30T12:56:52;27.20;99.90
9527;DHT22;4802;51.494;6.770;2022-08-30T13:03:27;27.00;99.90
9527;DHT22;4802;51.494;6.770;2022-08-30T13:05:59;27.10;99.90
9527;DHT22;4802;51.494;6.770;2022-08-30T13:08:31;27.20;99.90
9527;DHT22;4802;51.494;6.770;2022-08-30T13:11:05;26.90;99.90
9527;DHT22;4802;51.494;6.770;2022-08-30T13:13:38;27.00;99.90
9527;DHT22;4802;51.494;6.770;2022-08-30T13:16:21;27.00;99.90
9527;DHT22;4802;51.494;6.770;2022-08-30T13:18:54;27.00;99.90
9527;DHT22;4802;51.494;6.770;2022-08-30T13:21:27;27.10;99.90
9527;DHT22;4802;51.494;6.770;2022-08-30T13:23:59;27.50;99.90
9527;DHT22;4802;51.494;6.770;2022-08-30T13:26:30;27.30;99.90
9527;DHT22;4802;51.494;6.770;2022-08-30T13:29:03;27.40;99.90
9527;DHT22;4802;51.494;6.770;2022-08-30T13:31:36;27.50;99.90
9527;DHT22;4802;51.494;6.770;2022-08-30T13:34:06;26.70;99.90
9527;DHT22;4802;51.494;6.770;2022-08-30T13:36:42;26.40;99.90
9527;DHT22;4802;51.494;6.770;2022-08-30T13:39:13;26.70;99.90
9527;DHT22;4802;51.494;6.770;2022-08-30T13:41:47;26.90;99.90
9527;DHT22;4802;51.494;6.770;2022-08-30T13:44:17;26.90;99.90
9527;DHT22;4802;51.494;6.770;2022-08-30T13:46:50;27.10;99.90
9527;DHT22;4802;51.494;6.770;2022-08-30T13:49:25;27.30;99.90
9527;DHT22;4802;51.494;6.770;2022-08-30T13:52:15;27.40;99.90
9527;DHT22;4802;51.494;6.770;2022-08-30T13:54:49;27.60;99.90
9527;DHT22;4802;51.494;6.770;2022-08-30T13:57:23;27.50;99.90
9527;DHT22;4802;51.494;6.770;2022-08-30T14:00:16;27.40;99.90
9527;DHT22;4802;51.494;6.770;2022-08-30T14:02:47;27.10;99.90
9527;DHT22;4802;51.494;6.770;2022-08-30T14:05:22;27.10;99.90
9527;DHT22;4802;51.494;6.770;2022-08-30T14:08:15;27.10;99.90
9527;DHT22;4802;51.494;6.770;2022-08-30T14:11:05;26.90;99.90
9527;DHT22;4802;51.494;6.770;2022-08-30T14:13:34;26.90;99.90
9527;DHT22;4802;51.494;6.770;2022-08-30T14:16:06;27.00;99.90
9527;DHT22;4802;51.494;6.770;2022-08-30T14:18:58;26.80;99.90
9527;DHT22;4802;51.494;6.770;2022-08-30T14:21:28;26.80;99.90
9527;DHT22;4802;51.494;6.770;2022-08-30T14:23:59;26.80;99.90
9527;DHT22;4802;51.494;6.770;2022-08-30T14:26:31;26.70;99.90
9527;DHT22;4802;51.494;6.770;2022-08-30T14:29:02;26.50;99.90
9527;DHT22;4802;51.494;6.770;2022-08-30T14:31:35;26.50;99.90
9527;DHT22;4802;51.494;6.770;2022-08-30T14:34:07;26.40;99.90
9527;DHT22;4802;51.494;6.770;2022-08-30T14:36:40;26.60;99.90
9527;DHT22;4802;51.494;6.770;2022-08-30T14:39:13;26.60;99.90
9527;DHT22;4802;51.494;6.770;2022-08-30T14:41:46;26.60;99.90
9527;DHT22;4802;51.494;6.770;2022-08-30T14:44:17;26.60;99.90
9527;DHT22;4802;51.494;6.770;2022-08-30T14:46:47;26.60;99.90
9527;DHT22;4802;51.494;6.770;2022-08-30T14:49:18;26.50;99.90
9527;DHT22;4802;51.494;6.770;2022-08-30T14:51:49;26.30;99.90
9527;DHT22;4802;51.494;6.770;2022-08-30T14:54:21;26.30;99.90
9527;DHT22;4802;51.494;6.770;2022-08-30T14:56:51;26.40;99.90
9527;DHT22;4802;51.494;6.770;2022-08-30T14:59:21;26.40;99.90
9527;DHT22;4802;51.494;6.770;2022-08-30T15:01:50;26.40;99.90
9527;DHT22;4802;51.494;6.770;2022-08-30T15:04:20;26.40;99.90
9527;DHT22;4802;51.494;6.770;2022-08-30T15:06:50;26.40;99.90
9527;DHT22;4802;51.494;6.770;2022-08-30T15:09:22;26.30;99.90
9527;DHT22;4802;51.494;6.770;2022-08-30T15:11:51;26.30;99.90
9527;DHT22;4802;51.494;6.770;2022-08-30T15:14:21;26.20;99.90
9527;DHT22;4802;51.494;6.770;2022-08-30T15:16:54;26.20;99.90
9527;DHT22;4802;51.494;6.770;2022-08-30T15:19:25;26.10;99.90
9527;DHT22;4802;51.494;6.770;2022-08-30T15:21:58;26.00;99.90
9527;DHT22;4802;51.494;6.770;2022-08-30T15:24:31;25.90;99.90
9527;DHT22;4802;51.494;6.770;2022-08-30T15:27:02;25.90;99.90
9527;DHT22;4802;51.494;6.770;2022-08-30T15:29:32;25.90;99.90
9527;DHT22;4802;51.494;6.770;2022-08-30T15:32:04;26.00;99.90
9527;DHT22;4802;51.494;6.770;2022-08-30T15:34:33;26.00;99.90
9527;DHT22;4802;51.494;6.770;2022-08-30T15:37:03;26.00;99.90
9527;DHT22;4802;51.494;6.770;2022-08-30T15:39:35;26.20;99.90
9527;DHT22;4802;51.494;6.770;2022-08-30T15:42:06;26.30;99.90
9527;DHT22;4802;51.494;6.770;2022-08-30T15:44:35;26.30;99.90
9527;DHT22;4802;51.494;6.770;2022-08-30T15:47:05;26.30;99.90
9527;DHT22;4802;51.494;6.770;2022-08-30T15:49:34;25.90;99.90
9527;DHT22;4802;51.494;6.770;2022-08-30T15:52:04;26.30;99.90
9527;DHT22;4802;51.494;6.770;2022-08-30T15:54:35;26.20;99.90
9527;DHT22;4802;51.494;6.770;2022-08-30T15:57:04;26.10;99.90
9527;DHT22;4802;51.494;6.770;2022-08-30T15:59:34;26.10;99.90
9527;DHT22;4802;51.494;6.770;2022-08-30T16:02:03;26.10;99.90
9527;DHT22;4802;51.494;6.770;2022-08-30T16:04:32;26.10;99.90
9527;DHT22;4802;51.494;6.770;2022-08-30T16:07:01;26.00;99.90
9527;DHT22;4802;51.494;6.770;2022-08-30T16:09:38;25.90;99.90
9527;DHT22;4802;51.494;6.770;2022-08-30T16:12:08;25.80;99.90
9527;DHT22;4802;51.494;6.770;2022-08-30T16:14:37;25.80;99.90
9527;DHT22;4802;51.494;6.770;2022-08-30T16:17:08;25.80;99.90
9527;DHT22;4802;51.494;6.770;2022-08-30T16:19:37;25.80;99.90
9527;DHT22;4802;51.494;6.770;2022-08-30T16:22:06;25.80;99.90
9527;DHT22;4802;51.494;6.770;2022-08-30T16:24:39;25.70;99.90
9527;DHT22;4802;51.494;6.770;2022-08-30T16:27:15;25.30;99.90
9527;DHT22;4802;51.494;6.770;2022-08-30T16:29:47;25.60;99.90
9527;DHT22;4802;51.494;6.770;2022-08-30T16:32:16;25.50;99.90
9527;DHT22;4802;51.494;6.770;2022-08-30T16:34:46;25.60;99.90
9527;DHT22;4802;51.494;6.770;2022-08-30T16:37:15;25.50;99.90
9527;DHT22;4802;51.494;6.770;2022-08-30T16:39:48;25.50;99.90
9527;DHT22;4802;51.494;6.770;2022-08-30T16:42:17;25.50;99.90
9527;DHT22;4802;51.494;6.770;2022-08-30T16:44:47;25.50;99.90
9527;DHT22;4802;51.494;6.770;2022-08-30T16:47:16;25.50;99.90
9527;DHT22;4802;51.494;6.770;2022-08-30T16:49:46;25.40;99.90
9527;DHT22;4802;51.494;6.770;2022-08-30T16:52:16;25.30;99.90
9527;DHT22;4802;51.494;6.770;2022-08-30T16:54:46;25.20;99.90
9527;DHT22;4802;51.494;6.770;2022-08-30T16:57:18;25.10;99.90
9527;DHT22;4802;51.494;6.770;2022-08-30T16:59:48;25.00;99.90